createdAt,value
2018-09-22T00:01:14.392Z,100374.66
2018-09-22T00:03:42.854Z,100377.09
2018-09-22T00:06:11.290Z,100375.16
2018-09-22T00:08:39.807Z,100382.73
2018-09-22T00:11:08.237Z,100382.20
2018-09-22T00:13:36.659Z,100388.41
2018-09-22T00:16:05.092Z,100398.47
2018-09-22T00:18:33.537Z,100394.89
2018-09-22T00:21:02.036Z,100396.23
2018-09-22T00:23:30.448Z,100404.39
2018-09-22T00:25:58.949Z,100401.95
2018-09-22T00:28:27.359Z,100401.95
2018-09-22T00:30:56.338Z,100403.30
2018-09-22T00:33:24.753Z,100410.64
2018-09-22T00:35:53.245Z,100403.34
2018-09-22T00:38:22.857Z,100415.12
2018-09-22T00:40:51.296Z,100406.09
2018-09-22T00:43:19.766Z,100412.58
2018-09-22T00:45:48.186Z,100414.39
2018-09-22T00:48:16.593Z,100417.09
2018-09-22T00:50:45.032Z,100423.94
2018-09-22T00:53:13.679Z,100425.30
2018-09-22T00:55:42.126Z,100422.54
2018-09-22T00:58:10.549Z,100427.22
2018-09-22T01:00:39.049Z,100426.37
2018-09-22T01:03:07.501Z,100425.53
2018-09-22T01:05:35.898Z,100419.19
2018-09-22T01:08:04.937Z,100425.00
2018-09-22T01:10:33.480Z,100422.52
2018-09-22T01:13:01.990Z,100423.61
2018-09-22T01:15:30.448Z,100423.32
2018-09-22T01:17:58.941Z,100421.38
2018-09-22T01:20:28.446Z,100424.64
2018-09-22T01:22:56.945Z,100434.95
2018-09-22T01:25:25.385Z,100434.19
2018-09-22T01:27:53.868Z,100424.95
2018-09-22T01:30:24.393Z,100445.62
2018-09-22T01:32:52.837Z,100449.14
2018-09-22T01:35:21.255Z,100450.19
2018-09-22T01:37:49.904Z,100453.41
2018-09-22T01:40:18.345Z,100454.22
2018-09-22T01:42:47.855Z,100451.55
2018-09-22T01:45:16.403Z,100461.39
2018-09-22T01:47:44.918Z,100458.38
2018-09-22T01:50:13.383Z,100450.74
2018-09-22T01:52:41.825Z,100449.38
2018-09-22T01:55:10.246Z,100460.80
2018-09-22T01:57:38.754Z,100463.77
2018-09-22T02:00:07.250Z,100458.57
2018-09-22T02:02:35.791Z,100456.09
2018-09-22T02:05:04.390Z,100452.84
2018-09-22T02:07:33.577Z,100459.42
2018-09-22T02:10:02.073Z,100463.77
2018-09-22T02:12:30.617Z,100450.43
2018-09-22T02:14:59.305Z,100456.91
2018-09-22T02:17:27.746Z,100464.81
2018-09-22T02:19:56.270Z,100476.48
2018-09-22T02:22:25.006Z,100476.69
2018-09-22T02:24:53.441Z,100474.50
2018-09-22T02:27:21.917Z,100480.48
2018-09-22T02:29:50.379Z,100484.53
2018-09-22T02:32:18.957Z,100488.34
2018-09-22T02:34:47.594Z,100493.77
2018-09-22T02:37:17.307Z,100498.08
2018-09-22T02:39:45.766Z,100491.31
2018-09-22T02:42:14.450Z,100499.47
2018-09-22T02:44:43.095Z,100496.42
2018-09-22T02:47:11.502Z,100499.70
2018-09-22T02:49:39.906Z,100491.02
2018-09-22T02:52:08.303Z,100492.11
2018-09-22T02:54:36.846Z,100490.48
2018-09-22T02:57:05.395Z,100492.94
2018-09-22T02:59:33.809Z,100488.30
2018-09-22T03:02:02.548Z,100485.02
2018-09-22T03:04:31.057Z,100496.45
2018-09-22T03:06:59.825Z,100515.17
2018-09-22T03:09:28.299Z,100504.50
2018-09-22T03:11:56.811Z,100504.38
2018-09-22T03:14:25.329Z,100513.27
2018-09-22T03:16:53.850Z,100510.70
2018-09-22T03:19:22.466Z,100522.50
2018-09-22T03:21:51.575Z,100509.86
2018-09-22T03:24:20.150Z,100503.19
2018-09-22T03:26:48.652Z,100500.16
2018-09-22T03:29:17.234Z,100503.06
2018-09-22T03:31:45.761Z,100509.47
2018-09-22T03:34:14.274Z,100517.58
2018-09-22T03:36:42.762Z,100518.63
2018-09-22T03:39:12.029Z,100520.80
2018-09-22T03:41:40.867Z,100520.06
2018-09-22T03:44:10.014Z,100514.45
2018-09-22T03:46:38.517Z,100517.78
2018-09-22T03:49:07.157Z,100525.82
2018-09-22T03:51:35.645Z,100525.15
2018-09-22T03:54:04.069Z,100517.94
2018-09-22T03:56:32.737Z,100515.30
2018-09-22T03:59:01.222Z,100517.72
2018-09-22T04:01:29.725Z,100507.07
2018-09-22T04:03:58.116Z,100507.53
2018-09-22T04:06:26.576Z,100509.41
2018-09-22T04:08:55.046Z,100499.86
2018-09-22T04:11:23.588Z,100499.30
2018-09-22T04:13:52.032Z,100506.35
2018-09-22T04:16:20.447Z,100503.94
2018-09-22T04:18:48.851Z,100502.63
2018-09-22T04:21:17.263Z,100514.92
2018-09-22T04:23:45.683Z,100507.91
2018-09-22T04:26:14.061Z,100516.43
2018-09-22T04:28:42.481Z,100511.82
2018-09-22T04:31:10.914Z,100518.31
2018-09-22T04:33:39.389Z,100526.20
2018-09-22T04:36:07.869Z,100530.84
2018-09-22T04:38:37.097Z,100537.38
2018-09-22T04:41:05.997Z,100531.41
2018-09-22T04:43:34.749Z,100541.19
2018-09-22T04:46:03.141Z,100548.28
2018-09-22T04:48:31.613Z,100551.31
2018-09-22T04:51:00.015Z,100540.77
2018-09-22T04:53:28.442Z,100545.11
2018-09-22T04:55:56.825Z,100544.05
2018-09-22T04:58:25.258Z,100555.72
2018-09-22T05:00:53.700Z,100552.24
2018-09-22T05:03:22.242Z,100552.78
2018-09-22T05:05:50.801Z,100551.95
2018-09-22T05:08:19.344Z,100558.17
2018-09-22T05:10:47.855Z,100558.17
2018-09-22T05:13:16.233Z,100551.12
2018-09-22T05:15:44.685Z,100555.72
2018-09-22T05:18:13.599Z,100558.45
2018-09-22T05:20:42.109Z,100563.05
2018-09-22T05:23:10.532Z,100563.84
2018-09-22T05:25:39.437Z,100574.94
2018-09-22T05:28:07.858Z,100566.74
2018-09-22T05:30:36.369Z,100577.58
2018-09-22T05:33:04.947Z,100573.23
2018-09-22T05:35:33.564Z,100583.84
2018-09-22T05:38:01.990Z,100579.81
2018-09-22T05:40:30.425Z,100590.98
2018-09-22T05:42:59.581Z,100595.59
2018-09-22T05:45:28.123Z,100600.45
2018-09-22T05:47:56.613Z,100604.80
2018-09-22T05:50:25.162Z,100609.40
2018-09-22T05:52:53.789Z,100606.69
2018-09-22T05:55:22.186Z,100613.22
2018-09-22T05:57:50.585Z,100625.79
2018-09-22T06:00:19.009Z,100603.39
2018-09-22T06:02:47.441Z,100616.55
2018-09-22T06:05:16.125Z,100613.33
2018-09-22T06:07:45.129Z,100605.75
2018-09-22T06:10:13.754Z,100609.86
2018-09-22T06:12:42.217Z,100605.27
2018-09-22T06:15:10.801Z,100603.94
2018-09-22T06:17:39.561Z,100606.73
2018-09-22T06:20:08.133Z,100607.08
2018-09-22T06:22:37.134Z,100616.41
2018-09-22T06:25:05.666Z,100619.19
2018-09-22T06:27:34.258Z,100617.08
2018-09-22T06:30:03.222Z,100617.67
2018-09-22T06:32:31.737Z,100611.21
2018-09-22T06:35:00.318Z,100602.62
2018-09-22T06:37:28.871Z,100606.50
2018-09-22T06:39:57.591Z,100598.99
2018-09-22T06:42:26.129Z,100595.17
2018-09-22T06:45:00.593Z,100590.86
2018-09-22T06:47:28.992Z,100581.39
2018-09-22T06:49:57.389Z,100587.98
2018-09-22T06:52:25.757Z,100589.97
2018-09-22T06:54:54.238Z,100589.14
2018-09-22T06:57:22.568Z,100583.22
2018-09-22T06:59:50.956Z,100591.49
2018-09-22T07:02:19.340Z,100592.31
2018-09-22T07:04:47.741Z,100612.50
2018-09-22T07:07:25.605Z,100615.81
2018-09-22T07:09:54.006Z,100621.31
2018-09-22T07:12:22.398Z,100614.81
2018-09-22T07:14:50.805Z,100606.44
2018-09-22T07:17:19.174Z,100614.97
2018-09-22T07:19:47.680Z,100610.09
2018-09-22T07:22:21.369Z,100619.65
2018-09-22T07:24:49.782Z,100626.73
2018-09-22T07:27:18.251Z,100628.39
2018-09-22T07:29:46.690Z,100630.31
2018-09-22T07:32:15.149Z,100642.89
2018-09-22T07:34:43.565Z,100640.47
2018-09-22T07:37:12.029Z,100643.22
2018-09-22T07:39:40.434Z,100649.08
2018-09-22T07:42:08.837Z,100654.59
2018-09-22T07:44:37.277Z,100654.11
2018-09-22T07:47:05.418Z,100656.30
2018-09-22T07:49:33.821Z,100653.48
2018-09-22T07:52:02.230Z,100649.16
2018-09-22T07:54:30.902Z,100641.98
2018-09-22T07:56:59.461Z,100648.83
2018-09-22T07:59:27.877Z,100652.41
2018-09-22T08:01:56.345Z,100647.81
2018-09-22T08:04:24.784Z,100643.45
2018-09-22T08:06:53.290Z,100632.58
2018-09-22T08:09:21.807Z,100650.05
2018-09-22T08:11:52.228Z,100649.80
2018-09-22T08:14:20.862Z,100635.34
2018-09-22T08:16:49.298Z,100655.01
2018-09-22T08:19:17.689Z,100657.53
2018-09-22T08:21:46.223Z,100643.05
2018-09-22T08:24:14.803Z,100661.88
2018-09-22T08:26:43.478Z,100671.75
2018-09-22T08:29:11.999Z,100670.68
2018-09-22T08:31:40.466Z,100659.00
2018-09-22T08:34:08.858Z,100653.47
2018-09-22T08:36:37.507Z,100644.50
2018-09-22T08:39:08.317Z,100638.77
2018-09-22T08:41:36.760Z,100633.02
2018-09-22T08:44:05.182Z,100625.91
2018-09-22T08:46:33.693Z,100634.08
2018-09-22T08:49:02.102Z,100640.37
2018-09-22T08:51:30.558Z,100647.19
2018-09-22T08:53:59.093Z,100661.15
2018-09-22T08:56:27.579Z,100655.67
2018-09-22T08:58:55.990Z,100645.28
2018-09-22T09:01:25.133Z,100622.31
2018-09-22T09:03:53.590Z,100620.36
2018-09-22T09:06:22.041Z,100617.13
2018-09-22T09:08:50.497Z,100622.59
2018-09-22T09:11:18.994Z,100617.63
2018-09-22T09:13:47.432Z,100609.95
2018-09-22T09:16:16.091Z,100617.34
2018-09-22T09:18:44.546Z,100613.69
2018-09-22T09:21:13.014Z,100619.16
2018-09-22T09:23:41.413Z,100617.50
2018-09-22T09:26:09.887Z,100627.19
2018-09-22T09:28:38.288Z,100633.50
2018-09-22T09:31:06.786Z,100630.22
2018-09-22T09:33:48.221Z,100624.98
2018-09-22T09:36:16.641Z,100624.81
2018-09-22T09:38:45.117Z,100626.92
2018-09-22T09:41:13.515Z,100626.60
2018-09-22T09:43:42.120Z,100602.44
2018-09-22T09:46:10.837Z,100604.48
2018-09-22T09:48:39.234Z,100599.66
2018-09-22T09:51:07.723Z,100597.77
2018-09-22T09:53:36.145Z,100591.19
2018-09-22T09:56:04.718Z,100577.93
2018-09-22T09:58:33.198Z,100585.44
2018-09-22T10:01:01.711Z,100587.48
2018-09-22T10:03:30.365Z,100589.53
2018-09-22T10:05:58.745Z,100580.89
2018-09-22T10:08:27.180Z,100589.41
2018-09-22T10:10:55.598Z,100581.48
2018-09-22T10:13:24.134Z,100561.62
2018-09-22T10:15:52.511Z,100559.11
2018-09-22T10:18:20.972Z,100548.28
2018-09-22T10:20:49.525Z,100567.30
2018-09-22T10:23:18.057Z,100558.08
2018-09-22T10:25:46.581Z,100563.56
2018-09-22T10:28:15.022Z,100561.59
2018-09-22T10:30:43.445Z,100554.02
2018-09-22T10:33:11.971Z,100542.14
2018-09-22T10:35:40.770Z,100544.36
2018-09-22T10:38:09.225Z,100536.02
2018-09-22T10:40:37.669Z,100544.47
2018-09-22T10:43:06.149Z,100546.40
2018-09-22T10:45:34.657Z,100548.12
2018-09-22T10:48:03.119Z,100543.84
2018-09-22T10:50:31.598Z,100543.22
2018-09-22T10:53:00.090Z,100525.52
2018-09-22T10:55:28.445Z,100523.11
2018-09-22T10:57:56.850Z,100527.59
2018-09-22T11:00:25.404Z,100537.25
2018-09-22T11:02:53.863Z,100536.52
2018-09-22T11:05:22.430Z,100520.61
2018-09-22T11:07:50.881Z,100526.13
2018-09-22T11:10:19.338Z,100526.84
2018-09-22T11:12:47.806Z,100528.49
2018-09-22T11:15:16.223Z,100522.38
2018-09-22T11:17:44.685Z,100526.27
2018-09-22T11:20:13.077Z,100530.47
2018-09-22T11:22:41.506Z,100526.00
2018-09-22T11:25:09.910Z,100535.28
2018-09-22T11:27:38.358Z,100531.00
2018-09-22T11:30:06.894Z,100517.84
2018-09-22T11:32:35.371Z,100525.73
2018-09-22T11:35:03.798Z,100515.25
2018-09-22T11:37:32.256Z,100507.27
2018-09-22T11:40:00.659Z,100499.50
2018-09-22T11:42:29.093Z,100495.99
2018-09-22T11:44:57.496Z,100486.35
2018-09-22T11:47:25.901Z,100490.93
2018-09-22T11:49:54.361Z,100492.14
2018-09-22T11:52:22.881Z,100477.66
2018-09-22T11:54:51.289Z,100484.64
2018-09-22T11:57:19.795Z,100477.41
2018-09-22T11:59:48.257Z,100480.48
2018-09-22T12:02:16.666Z,100492.23
2018-09-22T12:04:45.185Z,100502.51
2018-09-22T12:07:13.633Z,100507.35
2018-09-22T12:09:42.101Z,100510.70
2018-09-22T12:12:10.510Z,100517.27
2018-09-22T12:14:38.961Z,100511.67
2018-09-22T12:17:07.363Z,100516.75
2018-09-22T12:19:35.804Z,100513.62
2018-09-22T12:22:04.229Z,100506.45
2018-09-22T12:24:32.718Z,100495.11
2018-09-22T12:27:01.121Z,100493.25
2018-09-22T12:29:29.583Z,100507.06
2018-09-22T12:31:58.087Z,100486.56
2018-09-22T12:34:26.464Z,100482.99
2018-09-22T12:36:54.854Z,100473.20
2018-09-22T12:39:23.277Z,100463.99
2018-09-22T12:41:51.669Z,100475.45
2018-09-22T12:44:20.079Z,100477.50
2018-09-22T12:46:48.481Z,100482.41
2018-09-22T12:49:16.929Z,100481.20
2018-09-22T12:51:45.345Z,100476.01
2018-09-22T12:54:13.780Z,100484.22
2018-09-22T12:56:42.237Z,100478.48
2018-09-22T12:59:10.681Z,100474.17
2018-09-22T13:01:40.594Z,100471.77
2018-09-22T13:04:09.102Z,100478.70
2018-09-22T13:06:43.501Z,100474.75
2018-09-22T13:09:12.421Z,100468.77
2018-09-22T13:11:40.834Z,100460.09
2018-09-22T13:14:09.311Z,100470.42
2018-09-22T13:16:37.727Z,100476.72
2018-09-22T13:19:06.241Z,100465.80
2018-09-22T13:21:34.683Z,100468.61
2018-09-22T13:24:03.556Z,100469.62
2018-09-22T13:26:32.029Z,100463.30
2018-09-22T13:29:00.636Z,100465.16
2018-09-22T13:31:29.045Z,100455.23
2018-09-22T13:33:57.610Z,100454.78
2018-09-22T13:36:26.050Z,100460.63
2018-09-22T13:38:54.477Z,100469.84
2018-09-22T13:41:22.910Z,100461.22
2018-09-22T13:43:51.377Z,100481.33
2018-09-22T13:46:19.785Z,100485.55
2018-09-22T13:48:48.406Z,100517.66
2018-09-22T13:51:16.777Z,100531.85
2018-09-22T13:53:45.200Z,100507.02
2018-09-22T13:56:13.656Z,100512.55
2018-09-22T13:58:42.082Z,100521.05
2018-09-22T14:01:10.479Z,100509.06
2018-09-22T14:03:38.932Z,100521.85
2018-09-22T14:06:09.421Z,100526.88
2018-09-22T14:08:37.893Z,100533.64
2018-09-22T14:11:06.401Z,100539.53
2018-09-22T14:13:34.851Z,100553.97
2018-09-22T14:16:03.404Z,100556.45
2018-09-22T14:18:31.778Z,100545.92
2018-09-22T14:21:00.203Z,100556.25
2018-09-22T14:23:28.602Z,100545.36
2018-09-22T14:25:57.016Z,100532.21
2018-09-22T14:28:25.497Z,100544.53
2018-09-22T14:30:53.986Z,100527.08
2018-09-22T14:33:22.445Z,100522.16
2018-09-22T14:35:50.876Z,100520.98
2018-09-22T14:38:19.314Z,100531.75
2018-09-22T14:40:47.772Z,100531.38
2018-09-22T14:43:16.177Z,100525.67
2018-09-22T14:45:44.609Z,100518.55
2018-09-22T14:48:13.017Z,100517.48
2018-09-22T14:50:41.477Z,100512.64
2018-09-22T14:53:10.010Z,100514.03
2018-09-22T14:55:38.464Z,100511.98
2018-09-22T14:58:07.257Z,100508.23
2018-09-22T15:00:35.665Z,100501.77
2018-09-22T15:03:04.461Z,100493.61
2018-09-22T15:05:32.989Z,100503.48
2018-09-22T15:08:01.450Z,100508.39
2018-09-22T15:10:29.891Z,100506.80
2018-09-22T15:12:58.363Z,100513.09
2018-09-22T15:15:26.761Z,100504.94
2018-09-22T15:17:55.162Z,100507.98
2018-09-22T15:20:23.592Z,100502.01
2018-09-22T15:22:52.021Z,100507.69
2018-09-22T15:25:20.436Z,100516.45
2018-09-22T15:27:48.843Z,100508.58
2018-09-22T15:30:17.238Z,100508.27
2018-09-22T15:32:45.678Z,100497.59
2018-09-22T15:35:14.378Z,100510.41
2018-09-22T15:37:42.801Z,100513.69
2018-09-22T15:40:11.197Z,100513.12
2018-09-22T15:42:39.579Z,100507.09
2018-09-22T15:45:08.825Z,100504.33
2018-09-22T15:47:37.312Z,100508.36
2018-09-22T15:50:05.797Z,100510.23
2018-09-22T15:52:34.514Z,100502.60
2018-09-22T15:55:02.980Z,100496.06
2018-09-22T15:57:31.423Z,100496.31
2018-09-22T16:00:00.065Z,100502.31
2018-09-22T16:02:28.529Z,100512.88
2018-09-22T16:04:56.970Z,100503.89
2018-09-22T16:07:25.662Z,100507.61
2018-09-22T16:09:55.062Z,100505.89
2018-09-22T16:12:23.474Z,100516.70
2018-09-22T16:14:51.917Z,100516.12
2018-09-22T16:17:20.349Z,100524.02
2018-09-22T16:19:48.745Z,100522.66
2018-09-22T16:22:17.429Z,100517.19
2018-09-22T16:24:45.902Z,100514.97
2018-09-22T16:27:14.767Z,100520.44
2018-09-22T16:29:43.221Z,100506.25
2018-09-22T16:32:11.651Z,100504.36
2018-09-22T16:34:40.097Z,100503.80
2018-09-22T16:37:08.526Z,100508.67
2018-09-22T16:39:36.918Z,100505.92
2018-09-22T16:42:05.393Z,100504.78
2018-09-22T16:44:33.810Z,100508.02
2018-09-22T16:47:02.255Z,100508.52
2018-09-22T16:49:30.834Z,100508.43
2018-09-22T16:51:59.238Z,100505.70
2018-09-22T16:54:27.658Z,100501.89
2018-09-22T16:56:56.109Z,100505.95
2018-09-22T16:59:24.517Z,100500.18
2018-09-22T17:01:52.945Z,100490.66
2018-09-22T17:04:21.365Z,100487.70
2018-09-22T17:06:49.920Z,100474.63
2018-09-22T17:09:18.334Z,100479.01
2018-09-22T17:11:46.827Z,100478.20
2018-09-22T17:14:15.229Z,100487.20
2018-09-22T17:16:43.645Z,100487.44
2018-09-22T17:19:12.065Z,100482.00
2018-09-22T17:21:40.537Z,100468.13
2018-09-22T17:24:08.946Z,100456.42
2018-09-22T17:26:37.405Z,100459.64
2018-09-22T17:29:06.066Z,100467.24
2018-09-22T17:31:34.489Z,100459.38
2018-09-22T17:34:02.898Z,100465.89
2018-09-22T17:36:31.354Z,100468.60
2018-09-22T17:38:59.766Z,100463.70
2018-09-22T17:41:28.194Z,100468.25
2018-09-22T17:43:56.588Z,100465.23
2018-09-22T17:46:24.993Z,100472.33
2018-09-22T17:48:53.410Z,100477.06
2018-09-22T17:51:21.830Z,100487.44
2018-09-22T17:53:50.234Z,100470.08
2018-09-22T17:56:18.714Z,100464.27
2018-09-22T17:58:47.122Z,100468.37
2018-09-22T18:01:15.550Z,100467.54
2018-09-22T18:03:44.051Z,100463.73
2018-09-22T18:06:14.558Z,100467.24
2018-09-22T18:08:43.017Z,100475.73
2018-09-22T18:11:11.495Z,100469.78
2018-09-22T18:13:39.915Z,100468.34
2018-09-22T18:16:08.400Z,100469.99
2018-09-22T18:18:36.943Z,100471.41
2018-09-22T18:21:05.697Z,100474.69
2018-09-22T18:23:34.165Z,100483.12
2018-09-22T18:26:02.547Z,100495.71
2018-09-22T18:28:30.985Z,100497.37
2018-09-22T18:30:59.367Z,100499.02
2018-09-22T18:33:27.890Z,100488.41
2018-09-22T18:35:56.337Z,100474.80
2018-09-22T18:38:24.789Z,100481.05
2018-09-22T18:40:53.223Z,100479.09
2018-09-22T18:43:21.653Z,100481.49
2018-09-22T18:45:50.167Z,100473.59
2018-09-22T18:48:18.594Z,100479.30
2018-09-22T18:50:46.993Z,100478.55
2018-09-22T18:53:15.427Z,100485.33
2018-09-22T18:55:43.865Z,100481.20
2018-09-22T18:58:12.295Z,100468.84
2018-09-22T19:00:40.697Z,100476.17
2018-09-22T19:03:09.974Z,100483.80
2018-09-22T19:05:38.353Z,100482.17
2018-09-22T19:08:06.873Z,100497.73
2018-09-22T19:10:35.300Z,100504.47
2018-09-22T19:13:04.637Z,100488.85
2018-09-22T19:15:42.081Z,100467.73
2018-09-22T19:18:13.878Z,100472.84
2018-09-22T19:20:46.018Z,100465.25
2018-09-22T19:23:18.431Z,100469.03
2018-09-22T19:25:50.392Z,100477.19
2018-09-22T19:28:29.574Z,100480.20
2018-09-22T19:31:00.594Z,100481.83
2018-09-22T19:33:31.909Z,100477.26
2018-09-22T19:36:04.541Z,100467.21
2018-09-22T19:38:42.885Z,100472.95
2018-09-22T19:42:15.924Z,100480.07
2018-09-22T19:44:52.876Z,100479.84
2018-09-22T19:47:29.437Z,100471.14
2018-09-22T19:50:03.289Z,100461.92
2018-09-22T19:52:37.189Z,100472.27
2018-09-22T19:55:05.646Z,100470.09
2018-09-22T19:57:34.217Z,100454.30
2018-09-22T20:00:02.613Z,100460.33
2018-09-22T20:02:31.022Z,100456.28
2018-09-22T20:04:59.418Z,100456.31
2018-09-22T20:07:27.877Z,100449.77
2018-09-22T20:09:56.362Z,100444.34
2018-09-22T20:12:24.833Z,100442.18
2018-09-22T20:14:53.270Z,100440.26
2018-09-22T20:17:23.881Z,100442.73
2018-09-22T20:19:52.366Z,100443.30
2018-09-22T20:22:22.903Z,100451.43
2018-09-22T20:24:51.310Z,100458.50
2018-09-22T20:27:19.790Z,100461.78
2018-09-22T20:29:48.269Z,100454.41
2018-09-22T20:32:16.738Z,100438.92
2018-09-22T20:34:45.143Z,100438.09
2018-09-22T20:37:13.541Z,100425.33
2018-09-22T20:39:42.001Z,100421.75
2018-09-22T20:42:10.493Z,100426.89
2018-09-22T20:44:38.893Z,100428.52
2018-09-22T20:47:07.326Z,100421.96
2018-09-22T20:49:35.753Z,100423.06
2018-09-22T20:52:04.158Z,100413.69
2018-09-22T20:54:32.569Z,100408.25
2018-09-22T20:57:01.066Z,100408.31
2018-09-22T20:59:29.498Z,100399.56
2018-09-22T21:01:57.928Z,100393.03
2018-09-22T21:04:26.513Z,100384.08
2018-09-22T21:06:54.916Z,100392.80
2018-09-22T21:09:23.365Z,100387.92
2018-09-22T21:11:51.774Z,100387.62
2018-09-22T21:14:20.279Z,100387.92
2018-09-22T21:16:48.707Z,100383.58
2018-09-22T21:19:17.150Z,100373.02
2018-09-22T21:21:45.625Z,100365.90
2018-09-22T21:24:14.086Z,100368.09
2018-09-22T21:26:42.444Z,100376.24
2018-09-22T21:29:10.945Z,100371.87
2018-09-22T21:31:39.370Z,100367.81
2018-09-22T21:34:07.809Z,100359.42
2018-09-22T21:36:36.200Z,100363.50
2018-09-22T21:39:06.355Z,100365.13
2018-09-22T21:41:34.732Z,100353.72
2018-09-22T21:44:03.203Z,100360.59
2018-09-22T21:46:31.643Z,100354.27
2018-09-22T21:49:00.152Z,100356.41
2018-09-22T21:51:28.578Z,100342.28
2018-09-22T21:53:57.006Z,100340.66
2018-09-22T21:56:25.404Z,100347.75
2018-09-22T21:58:53.853Z,100343.11
2018-09-22T22:01:27.454Z,100333.59
2018-09-22T22:03:55.989Z,100326.80
2018-09-22T22:06:24.388Z,100337.67
2018-09-22T22:08:52.897Z,100337.38
2018-09-22T22:11:21.337Z,100334.12
2018-09-22T22:13:49.743Z,100329.52
2018-09-22T22:16:18.164Z,100312.13
2018-09-22T22:18:46.596Z,100303.20
2018-09-22T22:21:15.045Z,100301.02
2018-09-22T22:23:43.526Z,100298.23
2018-09-22T22:26:11.962Z,100295.23
2018-09-22T22:28:40.371Z,100290.33
2018-09-22T22:31:08.771Z,100291.75
2018-09-22T22:33:37.196Z,100296.34
2018-09-22T22:36:05.649Z,100288.45
2018-09-22T22:38:34.140Z,100281.13
2018-09-22T22:41:02.637Z,100268.91
2018-09-22T22:43:31.134Z,100259.66
2018-09-22T22:45:59.569Z,100255.31
2018-09-22T22:48:27.976Z,100256.36
2018-09-22T22:50:56.401Z,100268.33
2018-09-22T22:53:24.801Z,100271.82
2018-09-22T22:55:53.324Z,100268.03
2018-09-22T22:58:21.736Z,100273.48
2018-09-22T23:00:50.249Z,100274.30
2018-09-22T23:03:18.653Z,100267.77
2018-09-22T23:05:47.075Z,100267.50
2018-09-22T23:08:15.469Z,100262.89
2018-09-22T23:10:43.904Z,100256.65
2018-09-22T23:13:12.517Z,100250.09
2018-09-22T23:15:40.962Z,100235.69
2018-09-22T23:18:09.378Z,100234.60
2018-09-22T23:20:37.896Z,100239.78
2018-09-22T23:23:06.349Z,100237.84
2018-09-22T23:25:34.793Z,100242.20
2018-09-22T23:28:03.338Z,100231.33
2018-09-22T23:30:31.733Z,100234.56
2018-09-22T23:33:00.184Z,100234.05
2018-09-22T23:35:28.618Z,100222.62
2018-09-22T23:37:57.048Z,100215.53
2018-09-22T23:40:25.484Z,100178.80
2018-09-22T23:42:53.871Z,100179.96
2018-09-22T23:45:22.319Z,100191.91
2018-09-22T23:47:50.786Z,100184.59
2018-09-22T23:50:19.236Z,100188.10
2018-09-22T23:52:47.640Z,100194.62
2018-09-22T23:55:16.066Z,100193.56
2018-09-22T23:57:45.720Z,100189.77
